Time;durP1;ratioP1;P1;durP2;ratioP2;P2;SDS_P1;SDS_P2;PMS_P1;PMS_P2;Temp;Humidity;BMP_temperature;BMP_pressure;BME280_temperature;BME280_humidity;BME280_pressure;Samples;Min_cycle;Max_cycle;Signal;HPM_P1;HPM_P2
2022/12/07 00:00:31;;;;;;;0.00;0.00;;;;;;;;;;4984305;28;20113;-72
2022/12/07 00:02:58;;;;;;;0.00;0.00;;;;;;;;;;4983550;28;20054;-73
2022/12/07 00:05:24;;;;;;;0.00;0.00;;;;;;;;;;4982721;28;20373;-72
2022/12/07 00:07:50;;;;;;;0.00;0.00;;;;;;;;;;4986808;28;20022;-73
2022/12/07 00:10:17;;;;;;;0.00;0.00;;;;;;;;;;4987310;28;20354;-73
2022/12/07 00:12:43;;;;;;;0.00;0.00;;;;;;;;;;4987516;28;20034;-73
2022/12/07 00:15:09;;;;;;;0.00;0.00;;;;;;;;;;4992637;28;20049;-73
2022/12/07 00:17:36;;;;;;;0.00;0.00;;;;;;;;;;4986492;28;20528;-72
2022/12/07 00:20:02;;;;;;;0.00;0.00;;;;;;;;;;4982772;28;20029;-73
2022/12/07 00:22:28;;;;;;;0.00;0.00;;;;;;;;;;4985138;28;20426;-73
2022/12/07 00:24:55;;;;;;;0.00;0.00;;;;;;;;;;4990435;28;20030;-74
2022/12/07 00:27:21;;;;;;;0.00;0.00;;;;;;;;;;4994146;28;20473;-73
2022/12/07 00:29:47;;;;;;;0.00;0.00;;;;;;;;;;4992390;28;20039;-72
2022/12/07 00:32:13;;;;;;;0.00;0.00;;;;;;;;;;4992146;28;20053;-73
2022/12/07 00:34:40;;;;;;;0.00;0.00;;;;;;;;;;4993713;28;20053;-73
2022/12/07 00:37:06;;;;;;;0.00;0.00;;;;;;;;;;4993038;28;20088;-73
2022/12/07 00:39:32;;;;;;;0.03;0.03;;;;;;;;;;4990096;28;20031;-73
2022/12/07 00:41:59;;;;;;;0.00;0.00;;;;;;;;;;4988331;28;20038;-73
2022/12/07 00:44:25;;;;;;;0.00;0.00;;;;;;;;;;4986049;28;20077;-73
2022/12/07 00:46:51;;;;;;;0.00;0.00;;;;;;;;;;4983233;28;20097;-73
2022/12/07 00:49:18;;;;;;;0.00;0.00;;;;;;;;;;4982159;28;20477;-72
2022/12/07 00:51:44;;;;;;;0.00;0.00;;;;;;;;;;4987596;28;20370;-73
2022/12/07 00:54:10;;;;;;;0.00;0.00;;;;;;;;;;4990379;28;20133;-73
2022/12/07 00:56:37;;;;;;;0.00;0.00;;;;;;;;;;4982851;28;20033;-72
2022/12/07 00:59:04;;;;;;;0.00;0.00;;;;;;;;;;4991544;28;20065;-73
2022/12/07 01:01:32;;;;;;;0.00;0.00;;;;;;;;;;4989660;28;20065;-73
2022/12/07 01:04:01;;;;;;;0.00;0.00;;;;;;;;;;4989172;28;20081;-73
2022/12/07 01:06:27;;;;;;;0.10;0.10;;;;;;;;;;4986342;28;20033;-74
2022/12/07 01:08:54;;;;;;;0.00;0.00;;;;;;;;;;4989655;28;20044;-73
2022/12/07 01:11:22;;;;;;;0.00;0.00;;;;;;;;;;4981911;28;20100;-73
2022/12/07 01:13:50;;;;;;;0.00;0.00;;;;;;;;;;4983649;28;20474;-73
2022/12/07 01:16:17;;;;;;;0.00;0.00;;;;;;;;;;4986485;28;20030;-73
2022/12/07 01:18:46;;;;;;;0.00;0.00;;;;;;;;;;4996242;28;20411;-73
2022/12/07 01:21:14;;;;;;;0.00;0.00;;;;;;;;;;4992350;28;20030;-73
2022/12/07 01:23:41;;;;;;;0.00;0.00;;;;;;;;;;4993221;28;20384;-73
2022/12/07 01:26:10;;;;;;;0.00;0.00;;;;;;;;;;4992040;28;20472;-72
2022/12/07 01:28:36;;;;;;;0.00;0.00;;;;;;;;;;4987977;28;20022;-74
2022/12/07 01:31:04;;;;;;;0.00;0.00;;;;;;;;;;4985130;28;20042;-72
2022/12/07 01:33:36;;;;;;;0.00;0.00;;;;;;;;;;4981862;28;20055;-73
2022/12/07 01:36:12;;;;;;;0.00;0.00;;;;;;;;;;4993641;28;20204;-73
2022/12/07 01:38:39;;;;;;;0.00;0.00;;;;;;;;;;4990202;28;20582;-75
2022/12/07 01:41:05;;;;;;;0.00;0.00;;;;;;;;;;4994980;28;20033;-74
2022/12/07 01:43:33;;;;;;;0.00;0.00;;;;;;;;;;4987767;28;20066;-73
2022/12/07 01:46:03;;;;;;;0.00;0.00;;;;;;;;;;4987737;28;20019;-75
2022/12/07 01:48:33;;;;;;;0.00;0.00;;;;;;;;;;4993326;28;20037;-73
2022/12/07 01:51:02;;;;;;;0.00;0.00;;;;;;;;;;4987512;28;20022;-74
2022/12/07 01:53:30;;;;;;;0.00;0.00;;;;;;;;;;4992213;28;20026;-74
2022/12/07 01:55:57;;;;;;;0.00;0.00;;;;;;;;;;4988845;28;20476;-72
2022/12/07 01:58:24;;;;;;;0.10;0.10;;;;;;;;;;4992740;28;20491;-74
2022/12/07 02:00:50;;;;;;;0.00;0.00;;;;;;;;;;4992817;28;20050;-75
2022/12/07 02:03:16;;;;;;;0.10;0.10;;;;;;;;;;4980595;28;20027;-73
2022/12/07 02:05:44;;;;;;;0.00;0.00;;;;;;;;;;4990516;28;20170;-73
2022/12/07 02:08:11;;;;;;;0.00;0.00;;;;;;;;;;4989528;28;20026;-73
2022/12/07 02:10:38;;;;;;;0.00;0.00;;;;;;;;;;4986021;28;20023;-73
2022/12/07 02:13:15;;;;;;;0.00;0.00;;;;;;;;;;4982812;28;20169;-72
2022/12/07 02:16:08;;;;;;;0.00;0.00;;;;;;;;;;4990065;28;20611;-75
2022/12/07 02:18:44;;;;;;;0.00;0.00;;;;;;;;;;4954421;28;20117;-72
2022/12/07 02:21:30;;;;;;;0.00;0.00;;;;;;;;;;4984358;28;20050;-78
2022/12/07 02:24:10;;;;;;;0.00;0.00;;;;;;;;;;4979454;28;20034;-71
2022/12/07 02:27:00;;;;;;;0.00;0.00;;;;;;;;;;4992885;28;20073;-74
2022/12/07 02:29:29;;;;;;;0.00;0.00;;;;;;;;;;4980902;28;20035;-74
2022/12/07 02:32:07;;;;;;;0.00;0.00;;;;;;;;;;4999882;28;20046;-73
2022/12/07 02:34:52;;;;;;;0.00;0.00;;;;;;;;;;5012412;28;20120;-73
2022/12/07 02:37:33;;;;;;;0.00;0.00;;;;;;;;;;5010252;28;20484;-73
2022/12/07 02:40:06;;;;;;;0.00;0.00;;;;;;;;;;5014225;28;20033;-72
2022/12/07 02:42:37;;;;;;;0.00;0.00;;;;;;;;;;5007253;28;20026;-72
2022/12/07 02:45:04;;;;;;;0.00;0.00;;;;;;;;;;4995713;28;20491;-73
2022/12/07 02:47:32;;;;;;;0.00;0.00;;;;;;;;;;5012306;28;20022;-75
2022/12/07 02:49:58;;;;;;;0.00;0.00;;;;;;;;;;5011254;28;20029;-73
2022/12/07 02:52:25;;;;;;;0.00;0.00;;;;;;;;;;5014544;28;20083;-74
2022/12/07 02:54:51;;;;;;;0.00;0.00;;;;;;;;;;5011773;28;20026;-76
2022/12/07 02:57:20;;;;;;;0.00;0.00;;;;;;;;;;5007903;28;20026;-77
2022/12/07 02:59:59;;;;;;;0.00;0.00;;;;;;;;;;4991526;28;20551;-78
2022/12/07 03:02:29;;;;;;;0.00;0.00;;;;;;;;;;4994774;28;20030;-74
2022/12/07 03:04:58;;;;;;;0.00;0.00;;;;;;;;;;5009658;28;20026;-75
2022/12/07 03:07:43;;;;;;;0.00;0.00;;;;;;;;;;5010410;28;20022;-74
2022/12/07 03:10:09;;;;;;;0.10;0.10;;;;;;;;;;4993165;28;20030;-75
2022/12/07 03:12:41;;;;;;;0.00;0.00;;;;;;;;;;4990248;28;20463;-77
2022/12/07 03:15:19;;;;;;;0.00;0.00;;;;;;;;;;4998260;28;20025;-75
2022/12/07 03:17:47;;;;;;;0.00;0.00;;;;;;;;;;5013716;28;20109;-75
2022/12/07 03:20:16;;;;;;;0.00;0.00;;;;;;;;;;5000191;28;20161;-79
2022/12/07 03:22:43;;;;;;;0.00;0.00;;;;;;;;;;4995317;28;20037;-81
2022/12/07 03:25:12;;;;;;;0.00;0.00;;;;;;;;;;5011586;28;20080;-78
2022/12/07 03:27:55;;;;;;;0.00;0.00;;;;;;;;;;5014885;28;20025;-78
2022/12/07 03:30:24;;;;;;;0.00;0.00;;;;;;;;;;5009227;28;20030;-80
2022/12/07 03:33:00;;;;;;;0.00;0.00;;;;;;;;;;5006263;28;20077;-79
2022/12/07 03:35:26;;;;;;;0.00;0.00;;;;;;;;;;4991230;28;20045;-74
2022/12/07 03:37:58;;;;;;;0.00;0.00;;;;;;;;;;4988566;28;20045;-75
2022/12/07 03:40:36;;;;;;;0.00;0.00;;;;;;;;;;5008461;28;20034;-76
2022/12/07 03:43:04;;;;;;;0.00;0.00;;;;;;;;;;5010660;28;20022;-75
2022/12/07 03:45:34;;;;;;;0.00;0.00;;;;;;;;;;5009988;28;20086;-78
2022/12/07 03:48:04;;;;;;;0.00;0.00;;;;;;;;;;5013541;28;20508;-76
2022/12/07 03:50:51;;;;;;;0.00;0.00;;;;;;;;;;5017144;28;20064;-75
2022/12/07 03:53:25;;;;;;;0.00;0.00;;;;;;;;;;4979051;28;20038;-77
2022/12/07 03:55:53;;;;;;;0.00;0.00;;;;;;;;;;5006463;28;20053;-74
2022/12/07 03:58:21;;;;;;;0.00;0.00;;;;;;;;;;4992117;28;20022;-75
2022/12/07 04:00:47;;;;;;;0.00;0.00;;;;;;;;;;4992294;28;20022;-75
2022/12/07 04:03:14;;;;;;;0.00;0.00;;;;;;;;;;5008148;28;20026;-75
2022/12/07 04:05:40;;;;;;;0.00;0.00;;;;;;;;;;5008792;28;20467;-72
2022/12/07 04:08:07;;;;;;;0.00;0.00;;;;;;;;;;4994799;28;20035;-75
2022/12/07 04:10:33;;;;;;;0.00;0.00;;;;;;;;;;5010256;28;20101;-73
2022/12/07 04:12:59;;;;;;;0.00;0.00;;;;;;;;;;4991782;28;20095;-75
2022/12/07 04:15:26;;;;;;;0.00;0.00;;;;;;;;;;5005961;28;20524;-74
2022/12/07 04:17:52;;;;;;;0.00;0.00;;;;;;;;;;5003059;28;20029;-73
2022/12/07 04:20:18;;;;;;;0.00;0.00;;;;;;;;;;5005615;28;20372;-74
2022/12/07 04:22:45;;;;;;;0.00;0.00;;;;;;;;;;4993868;28;20026;-74
2022/12/07 04:25:11;;;;;;;0.10;0.10;;;;;;;;;;5007921;28;20032;-72
2022/12/07 04:27:37;;;;;;;0.10;0.10;;;;;;;;;;4992794;28;20088;-75
2022/12/07 04:30:04;;;;;;;0.00;0.00;;;;;;;;;;4997842;28;20033;-75
2022/12/07 04:32:30;;;;;;;0.07;0.07;;;;;;;;;;4996517;28;20138;-74
2022/12/07 04:34:57;;;;;;;0.10;0.10;;;;;;;;;;4967859;28;20421;-72
2022/12/07 04:37:23;;;;;;;0.10;0.10;;;;;;;;;;4969474;28;20030;-74
2022/12/07 04:39:49;;;;;;;0.00;0.00;;;;;;;;;;4963774;28;20081;-74
2022/12/07 04:42:16;;;;;;;0.07;0.07;;;;;;;;;;4962299;28;20078;-72
2022/12/07 04:44:42;;;;;;;0.00;0.00;;;;;;;;;;4963354;28;20031;-75
2022/12/07 04:47:08;;;;;;;0.07;0.07;;;;;;;;;;4974287;28;20541;-72
2022/12/07 04:49:35;;;;;;;0.10;0.10;;;;;;;;;;4971881;28;20027;-73
2022/12/07 04:52:01;;;;;;;0.07;0.07;;;;;;;;;;4953382;28;20058;-74
2022/12/07 04:54:28;;;;;;;0.10;0.10;;;;;;;;;;4954680;28;20027;-74
2022/12/07 04:56:54;;;;;;;0.00;0.00;;;;;;;;;;4971723;28;20035;-73
2022/12/07 04:59:20;;;;;;;0.00;0.00;;;;;;;;;;4960233;28;20039;-74
2022/12/07 05:01:47;;;;;;;0.10;0.10;;;;;;;;;;4969365;28;20058;-72
2022/12/07 05:04:13;;;;;;;0.00;0.00;;;;;;;;;;4967255;28;20098;-72
2022/12/07 05:06:40;;;;;;;0.00;0.00;;;;;;;;;;4968623;28;20516;-74
2022/12/07 05:09:06;;;;;;;0.00;0.00;;;;;;;;;;4970597;28;20042;-72
2022/12/07 05:11:39;;;;;;;0.00;0.00;;;;;;;;;;4968477;28;20023;-73
2022/12/07 05:14:19;;;;;;;0.00;0.00;;;;;;;;;;4970593;28;20476;-74
2022/12/07 05:16:46;;;;;;;0.10;0.10;;;;;;;;;;4967309;28;20023;-74
2022/12/07 05:19:12;;;;;;;0.00;0.00;;;;;;;;;;4974783;28;20062;-74
2022/12/07 05:21:40;;;;;;;0.10;0.10;;;;;;;;;;4970542;28;20540;-74
2022/12/07 05:24:07;;;;;;;0.00;0.00;;;;;;;;;;4972805;28;20023;-73
2022/12/07 05:26:34;;;;;;;0.10;0.10;;;;;;;;;;4970148;28;20487;-72
2022/12/07 05:29:00;;;;;;;0.07;0.07;;;;;;;;;;4971024;28;20023;-75
2022/12/07 05:31:27;;;;;;;0.00;0.00;;;;;;;;;;4969868;28;20037;-77
2022/12/07 05:33:54;;;;;;;0.00;0.00;;;;;;;;;;4995378;28;20030;-74
2022/12/07 05:36:23;;;;;;;0.00;0.00;;;;;;;;;;5002166;28;21419;-75
2022/12/07 05:38:49;;;;;;;0.10;0.10;;;;;;;;;;4974307;28;20031;-72
2022/12/07 05:44:02;;;;;;;0.00;0.00;;;;;;;;;;4989533;28;20092;-73
2022/12/07 05:46:29;;;;;;;0.00;0.00;;;;;;;;;;4992190;28;20042;-73
2022/12/07 05:48:55;;;;;;;0.00;0.00;;;;;;;;;;4971905;28;20086;-74
2022/12/07 05:51:21;;;;;;;0.10;0.10;;;;;;;;;;4995400;28;20030;-74
2022/12/07 05:53:48;;;;;;;0.10;0.10;;;;;;;;;;4990465;28;20045;-74
2022/12/07 05:56:14;;;;;;;0.00;0.00;;;;;;;;;;4994086;28;20029;-75
2022/12/07 06:01:26;;;;;;;0.00;0.00;;;;;;;;;;4990486;28;20046;-74
2022/12/07 06:03:52;;;;;;;0.00;0.00;;;;;;;;;;4972657;28;20119;-75
2022/12/07 06:06:18;;;;;;;0.00;0.00;;;;;;;;;;4975194;28;20189;-76
2022/12/07 06:08:45;;;;;;;0.00;0.00;;;;;;;;;;4977168;28;20041;-73
2022/12/07 06:13:56;;;;;;;0.00;0.00;;;;;;;;;;4990431;28;20094;-74
2022/12/07 06:16:22;;;;;;;0.00;0.00;;;;;;;;;;4989993;28;20034;-73
2022/12/07 06:18:49;;;;;;;0.00;0.00;;;;;;;;;;4971580;28;20038;-73
2022/12/07 06:21:15;;;;;;;0.00;0.00;;;;;;;;;;4988238;28;20034;-75
2022/12/07 06:23:41;;;;;;;0.00;0.00;;;;;;;;;;4983219;28;20045;-73
2022/12/07 06:26:08;;;;;;;0.03;0.03;;;;;;;;;;4995864;28;20026;-77
2022/12/07 06:28:34;;;;;;;0.00;0.00;;;;;;;;;;4977653;28;20395;-75
2022/12/07 06:31:01;;;;;;;0.03;0.03;;;;;;;;;;4989218;28;20097;-75
2022/12/07 06:33:28;;;;;;;0.00;0.00;;;;;;;;;;4971486;28;20133;-78
2022/12/07 06:35:54;;;;;;;0.00;0.00;;;;;;;;;;4973891;28;20081;-73
2022/12/07 06:38:20;;;;;;;0.00;0.00;;;;;;;;;;4972973;28;20539;-74
2022/12/07 06:40:47;;;;;;;0.00;0.00;;;;;;;;;;4992486;28;20030;-76
2022/12/07 06:43:14;;;;;;;0.00;0.00;;;;;;;;;;4987891;28;20041;-75
2022/12/07 06:45:41;;;;;;;0.00;0.00;;;;;;;;;;4986727;28;20310;-76
2022/12/07 06:48:07;;;;;;;0.00;0.00;;;;;;;;;;4998586;28;20025;-76
2022/12/07 06:50:34;;;;;;;0.00;0.00;;;;;;;;;;4988604;28;20565;-79
2022/12/07 06:53:00;;;;;;;0.00;0.00;;;;;;;;;;4987047;28;20061;-76
2022/12/07 06:55:26;;;;;;;0.00;0.00;;;;;;;;;;4985787;28;20035;-74
2022/12/07 06:57:53;;;;;;;0.00;0.00;;;;;;;;;;4997118;28;20037;-71
2022/12/07 07:00:19;;;;;;;0.00;0.00;;;;;;;;;;4964162;28;20043;-74
2022/12/07 07:02:45;;;;;;;0.00;0.00;;;;;;;;;;4989537;28;20040;-75
2022/12/07 07:05:12;;;;;;;0.00;0.00;;;;;;;;;;4989161;28;20049;-73
2022/12/07 07:07:38;;;;;;;0.00;0.00;;;;;;;;;;4987025;28;20045;-74
2022/12/07 07:10:05;;;;;;;0.00;0.00;;;;;;;;;;4990486;28;20031;-74
2022/12/07 07:12:31;;;;;;;0.00;0.00;;;;;;;;;;4994656;28;20101;-73
2022/12/07 07:14:57;;;;;;;0.00;0.00;;;;;;;;;;4991787;28;20037;-72
2022/12/07 07:17:24;;;;;;;0.00;0.00;;;;;;;;;;4985216;28;20493;-73
2022/12/07 07:19:50;;;;;;;0.00;0.00;;;;;;;;;;4987178;28;20060;-74
2022/12/07 07:22:16;;;;;;;0.00;0.00;;;;;;;;;;4994622;28;20536;-73
2022/12/07 07:24:43;;;;;;;0.00;0.00;;;;;;;;;;4994006;28;20120;-72
2022/12/07 07:27:09;;;;;;;0.00;0.00;;;;;;;;;;4996985;28;20030;-72
2022/12/07 07:29:35;;;;;;;0.00;0.00;;;;;;;;;;4993725;28;20400;-72
2022/12/07 07:32:01;;;;;;;0.00;0.00;;;;;;;;;;4984088;28;20116;-73
2022/12/07 07:34:28;;;;;;;0.00;0.00;;;;;;;;;;4989609;28;20049;-72
2022/12/07 07:36:54;;;;;;;0.00;0.00;;;;;;;;;;4990716;28;20041;-71
2022/12/07 07:39:20;;;;;;;0.00;0.00;;;;;;;;;;4991311;28;20110;-72
2022/12/07 07:41:47;;;;;;;0.00;0.00;;;;;;;;;;4992227;28;20101;-72
2022/12/07 07:44:13;;;;;;;0.00;0.00;;;;;;;;;;4988263;28;20034;-72
2022/12/07 07:46:43;;;;;;;0.00;0.00;;;;;;;;;;4989078;28;20176;-70
2022/12/07 07:49:10;;;;;;;0.00;0.00;;;;;;;;;;4987428;28;20030;-69
2022/12/07 07:51:37;;;;;;;0.00;0.00;;;;;;;;;;4987251;28;20023;-72
2022/12/07 07:54:03;;;;;;;0.00;0.00;;;;;;;;;;4986162;28;20034;-72
2022/12/07 07:56:30;;;;;;;0.00;0.00;;;;;;;;;;4987640;28;20033;-72
2022/12/07 07:58:56;;;;;;;0.00;0.00;;;;;;;;;;4988656;28;20030;-71
2022/12/07 08:01:22;;;;;;;0.00;0.00;;;;;;;;;;4987517;28;20038;-72
2022/12/07 08:03:49;;;;;;;0.00;0.00;;;;;;;;;;4995041;28;20110;-72
2022/12/07 08:06:16;;;;;;;0.00;0.00;;;;;;;;;;4991027;28;20030;-73
2022/12/07 08:08:42;;;;;;;0.00;0.00;;;;;;;;;;4972433;28;20496;-72
2022/12/07 08:11:11;;;;;;;0.00;0.00;;;;;;;;;;4987951;28;20030;-72
2022/12/07 08:13:39;;;;;;;0.00;0.00;;;;;;;;;;4987071;28;20267;-72
2022/12/07 08:16:09;;;;;;;0.00;0.00;;;;;;;;;;4982049;28;20426;-73
2022/12/07 08:18:40;;;;;;;0.00;0.00;;;;;;;;;;4967604;28;20062;-72
2022/12/07 08:21:07;;;;;;;0.00;0.00;;;;;;;;;;4982102;28;20033;-74
2022/12/07 08:23:36;;;;;;;0.00;0.00;;;;;;;;;;4965855;28;20160;-76
2022/12/07 08:26:03;;;;;;;0.00;0.00;;;;;;;;;;4983470;28;20026;-72
2022/12/07 08:28:30;;;;;;;0.00;0.00;;;;;;;;;;4986040;28;20022;-73
2022/12/07 08:31:00;;;;;;;0.00;0.00;;;;;;;;;;4989092;28;20317;-74
2022/12/07 08:33:27;;;;;;;0.00;0.00;;;;;;;;;;5002327;28;20060;-73
2022/12/07 08:35:54;;;;;;;0.00;0.00;;;;;;;;;;4986348;28;20152;-72
2022/12/07 08:38:20;;;;;;;0.00;0.00;;;;;;;;;;4981098;28;20026;-72
2022/12/07 08:40:54;;;;;;;0.00;0.00;;;;;;;;;;5001483;28;20036;-71
2022/12/07 08:43:20;;;;;;;0.00;0.00;;;;;;;;;;5007049;28;20029;-70
2022/12/07 08:45:48;;;;;;;0.00;0.00;;;;;;;;;;5003875;28;20037;-74
2022/12/07 08:48:17;;;;;;;0.00;0.00;;;;;;;;;;4985703;28;20117;-71
2022/12/07 08:50:44;;;;;;;0.00;0.00;;;;;;;;;;4988514;28;20045;-71
2022/12/07 08:53:10;;;;;;;0.00;0.00;;;;;;;;;;5008211;28;20049;-75
2022/12/07 08:55:37;;;;;;;0.00;0.00;;;;;;;;;;4984242;28;20068;-75
2022/12/07 08:58:03;;;;;;;0.00;0.00;;;;;;;;;;4988199;28;20034;-75
2022/12/07 09:00:29;;;;;;;0.00;0.00;;;;;;;;;;5000174;28;20030;-72
2022/12/07 09:02:56;;;;;;;0.00;0.00;;;;;;;;;;4998431;28;20037;-72
2022/12/07 09:05:22;;;;;;;0.00;0.00;;;;;;;;;;4981531;28;20030;-77
2022/12/07 09:07:50;;;;;;;0.00;0.00;;;;;;;;;;5000303;28;20026;-71
2022/12/07 09:10:17;;;;;;;0.00;0.00;;;;;;;;;;5004025;28;20105;-75
2022/12/07 09:12:46;;;;;;;0.00;0.00;;;;;;;;;;5004885;28;20042;-73
2022/12/07 09:15:12;;;;;;;0.00;0.00;;;;;;;;;;4999841;28;20133;-73
2022/12/07 09:17:38;;;;;;;0.00;0.00;;;;;;;;;;4984443;28;20112;-77
2022/12/07 09:20:06;;;;;;;0.00;0.00;;;;;;;;;;4999108;28;20045;-75
2022/12/07 09:22:32;;;;;;;0.00;0.00;;;;;;;;;;4995492;28;20346;-75
2022/12/07 09:24:59;;;;;;;0.00;0.00;;;;;;;;;;4980461;28;20530;-75
2022/12/07 09:27:26;;;;;;;0.00;0.00;;;;;;;;;;4988537;28;20022;-72
2022/12/07 09:29:52;;;;;;;0.00;0.00;;;;;;;;;;5010812;28;20072;-73
2022/12/07 09:32:18;;;;;;;0.00;0.00;;;;;;;;;;4992503;28;20628;-71
2022/12/07 09:34:45;;;;;;;0.00;0.00;;;;;;;;;;4988056;28;20069;-73
2022/12/07 09:37:11;;;;;;;0.00;0.00;;;;;;;;;;4996096;28;20129;-73
2022/12/07 09:39:41;;;;;;;0.00;0.00;;;;;;;;;;4996406;28;20369;-75
2022/12/07 09:42:08;;;;;;;0.00;0.00;;;;;;;;;;5010495;28;20022;-73
2022/12/07 09:44:35;;;;;;;0.10;0.10;;;;;;;;;;5011240;28;20610;-71
2022/12/07 09:47:02;;;;;;;0.00;0.00;;;;;;;;;;5008308;28;20050;-72
2022/12/07 09:49:31;;;;;;;0.00;0.00;;;;;;;;;;4989736;28;20034;-72
2022/12/07 09:52:17;;;;;;;0.00;0.00;;;;;;;;;;4997352;28;20428;-73
2022/12/07 09:54:45;;;;;;;0.00;0.00;;;;;;;;;;5013965;28;20168;-72
2022/12/07 09:57:12;;;;;;;0.00;0.00;;;;;;;;;;4995546;28;20048;-73
2022/12/07 09:59:40;;;;;;;0.00;0.00;;;;;;;;;;4995025;28;20440;-73
2022/12/07 10:02:26;;;;;;;0.00;0.00;;;;;;;;;;4990690;28;20061;-71
2022/12/07 10:04:53;;;;;;;0.00;0.00;;;;;;;;;;4982928;28;20030;-73
2022/12/07 10:07:20;;;;;;;0.00;0.00;;;;;;;;;;5010125;28;20057;-73
2022/12/07 10:09:46;;;;;;;0.00;0.00;;;;;;;;;;5011728;28;20113;-71
2022/12/07 10:12:13;;;;;;;0.00;0.00;;;;;;;;;;4990562;28;20092;-70
2022/12/07 10:14:40;;;;;;;0.10;0.10;;;;;;;;;;5011053;28;20053;-71
2022/12/07 10:17:25;;;;;;;0.00;0.00;;;;;;;;;;4994657;28;20089;-72
2022/12/07 10:19:52;;;;;;;0.00;0.00;;;;;;;;;;4988621;28;20042;-72
2022/12/07 10:22:18;;;;;;;0.00;0.00;;;;;;;;;;5014254;28;20029;-74
2022/12/07 10:24:47;;;;;;;0.00;0.00;;;;;;;;;;5002794;28;20038;-72
2022/12/07 10:27:21;;;;;;;0.00;0.00;;;;;;;;;;4996021;28;20590;-73
2022/12/07 10:29:49;;;;;;;0.00;0.00;;;;;;;;;;4994425;28;20044;-73
2022/12/07 10:32:16;;;;;;;0.00;0.00;;;;;;;;;;4983908;28;20668;-71
2022/12/07 10:34:42;;;;;;;0.00;0.00;;;;;;;;;;4991626;28;20041;-70
2022/12/07 10:37:15;;;;;;;0.00;0.00;;;;;;;;;;4985258;28;20027;-69
2022/12/07 10:39:41;;;;;;;0.00;0.00;;;;;;;;;;4970807;28;20035;-75
2022/12/07 10:42:15;;;;;;;0.10;0.10;;;;;;;;;;4985405;28;20031;-74
2022/12/07 10:44:43;;;;;;;0.00;0.00;;;;;;;;;;4991958;28;20023;-74
2022/12/07 10:47:28;;;;;;;0.00;0.00;;;;;;;;;;4979163;28;20035;-73
2022/12/07 10:49:54;;;;;;;0.00;0.00;;;;;;;;;;4994699;28;20475;-72
2022/12/07 10:52:33;;;;;;;0.00;0.00;;;;;;;;;;4977993;28;20034;-75
2022/12/07 10:55:14;;;;;;;0.00;0.00;;;;;;;;;;4997728;28;20043;-71
2022/12/07 10:57:41;;;;;;;0.00;0.00;;;;;;;;;;4987386;28;20042;-71
2022/12/07 11:00:22;;;;;;;0.10;0.10;;;;;;;;;;4994942;28;20026;-71
2022/12/07 11:03:26;;;;;;;0.00;0.00;;;;;;;;;;4988798;28;20025;-71
2022/12/07 11:05:59;;;;;;;0.00;0.00;;;;;;;;;;4923483;29;20039;-70
2022/12/07 11:08:34;;;;;;;0.00;0.00;;;;;;;;;;4925448;29;20379;-71
2022/12/07 11:11:10;;;;;;;0.10;0.10;;;;;;;;;;4970917;28;20062;-71
2022/12/07 11:13:52;;;;;;;0.00;0.00;;;;;;;;;;4997496;28;20032;-70
2022/12/07 11:16:40;;;;;;;0.00;0.00;;;;;;;;;;4990839;28;20023;-70
2022/12/07 11:19:25;;;;;;;0.00;0.00;;;;;;;;;;4995579;28;20113;-71
2022/12/07 11:21:51;;;;;;;0.00;0.00;;;;;;;;;;4987756;28;20042;-71
2022/12/07 11:24:19;;;;;;;0.00;0.00;;;;;;;;;;4985079;28;20022;-70
2022/12/07 11:27:01;;;;;;;0.10;0.10;;;;;;;;;;4996259;28;20029;-69
2022/12/07 11:29:51;;;;;;;0.00;0.00;;;;;;;;;;4995537;28;20029;-71
2022/12/07 11:32:36;;;;;;;0.00;0.00;;;;;;;;;;4981385;28;20046;-70
2022/12/07 11:35:14;;;;;;;0.00;0.00;;;;;;;;;;4978515;28;20330;-71
2022/12/07 11:37:41;;;;;;;0.00;0.00;;;;;;;;;;4988361;28;20032;-71
2022/12/07 11:40:20;;;;;;;0.10;0.10;;;;;;;;;;4985362;28;20030;-70
2022/12/07 11:42:52;;;;;;;0.00;0.00;;;;;;;;;;4999600;28;20076;-70
2022/12/07 11:45:26;;;;;;;0.00;0.00;;;;;;;;;;4989230;28;20088;-71
2022/12/07 11:47:56;;;;;;;0.10;0.10;;;;;;;;;;4988969;28;20501;-71
2022/12/07 11:50:22;;;;;;;0.07;0.07;;;;;;;;;;4969245;28;20503;-70
2022/12/07 11:53:07;;;;;;;0.00;0.00;;;;;;;;;;4989853;28;20075;-71
2022/12/07 11:55:36;;;;;;;0.00;0.00;;;;;;;;;;4979893;28;20496;-70
2022/12/07 11:58:14;;;;;;;0.10;0.10;;;;;;;;;;4984332;28;20026;-71
2022/12/07 12:00:42;;;;;;;0.00;0.00;;;;;;;;;;4986976;28;20113;-71
2022/12/07 12:03:21;;;;;;;0.00;0.00;;;;;;;;;;4987050;28;20033;-75
2022/12/07 12:05:47;;;;;;;0.00;0.00;;;;;;;;;;4983409;28;20469;-71
2022/12/07 12:08:19;;;;;;;0.10;0.10;;;;;;;;;;4968804;28;20023;-70
2022/12/07 12:11:04;;;;;;;0.10;0.10;;;;;;;;;;4961677;28;20044;-70
2022/12/07 12:13:51;;;;;;;0.00;0.00;;;;;;;;;;4985292;28;20027;-70
2022/12/07 12:16:29;;;;;;;0.00;0.00;;;;;;;;;;4990657;28;20044;-71
2022/12/07 12:19:06;;;;;;;0.10;0.10;;;;;;;;;;4990499;28;20156;-70
2022/12/07 12:21:32;;;;;;;0.00;0.00;;;;;;;;;;4970754;28;20030;-70
2022/12/07 12:23:58;;;;;;;0.10;0.10;;;;;;;;;;4962363;28;20041;-70
2022/12/07 12:26:26;;;;;;;0.00;0.00;;;;;;;;;;4969966;28;20030;-70
2022/12/07 12:29:01;;;;;;;0.10;0.10;;;;;;;;;;4974508;28;20025;-70
2022/12/07 12:31:27;;;;;;;0.10;0.10;;;;;;;;;;4983690;28;20030;-70
2022/12/07 12:33:58;;;;;;;0.00;0.00;;;;;;;;;;4986405;28;20066;-70
2022/12/07 12:36:43;;;;;;;0.00;0.00;;;;;;;;;;5003984;28;20526;-69
2022/12/07 12:39:14;;;;;;;0.00;0.00;;;;;;;;;;4991229;28;20033;-70
2022/12/07 12:44:20;;;;;;;0.00;0.00;;;;;;;;;;5003007;28;20068;-70
2022/12/07 12:46:54;;;;;;;0.00;0.00;;;;;;;;;;5006801;28;20037;-70
2022/12/07 12:49:20;;;;;;;0.10;0.10;;;;;;;;;;5005816;28;20534;-70
2022/12/07 12:51:47;;;;;;;0.10;0.10;;;;;;;;;;5010471;28;20036;-69
2022/12/07 12:54:27;;;;;;;0.10;0.10;;;;;;;;;;5008432;28;20048;-69
2022/12/07 12:57:00;;;;;;;0.00;0.00;;;;;;;;;;4992083;28;20037;-70
2022/12/07 12:59:26;;;;;;;0.10;0.10;;;;;;;;;;5007537;28;20040;-71
2022/12/07 13:01:57;;;;;;;0.10;0.10;;;;;;;;;;4990243;28;20034;-70
2022/12/07 13:04:26;;;;;;;0.10;0.10;;;;;;;;;;5003669;28;20029;-70
2022/12/07 13:06:52;;;;;;;0.00;0.00;;;;;;;;;;4989590;28;20507;-70
2022/12/07 13:09:27;;;;;;;0.03;0.03;;;;;;;;;;4990551;28;20029;-73
2022/12/07 13:11:58;;;;;;;0.10;0.10;;;;;;;;;;5006240;28;20023;-70
2022/12/07 13:14:51;;;;;;;0.00;0.00;;;;;;;;;;5005246;28;20022;-70
2022/12/07 13:17:33;;;;;;;0.03;0.03;;;;;;;;;;5003320;28;20029;-70
2022/12/07 13:20:03;;;;;;;0.03;0.03;;;;;;;;;;4992616;28;20022;-70
2022/12/07 13:22:37;;;;;;;0.00;0.00;;;;;;;;;;4991309;28;20496;-70
2022/12/07 13:25:13;;;;;;;0.00;0.00;;;;;;;;;;4991555;28;20050;-72
2022/12/07 13:27:40;;;;;;;0.10;0.10;;;;;;;;;;4990830;28;20057;-70
2022/12/07 13:30:18;;;;;;;0.10;0.10;;;;;;;;;;4993217;28;20088;-70
2022/12/07 13:32:52;;;;;;;0.10;0.10;;;;;;;;;;4997359;28;20053;-69
2022/12/07 13:35:34;;;;;;;0.00;0.00;;;;;;;;;;4999810;28;20025;-69
2022/12/07 13:38:02;;;;;;;0.00;0.00;;;;;;;;;;4986589;28;20061;-70
2022/12/07 13:40:29;;;;;;;0.00;0.00;;;;;;;;;;4986325;28;20105;-70
2022/12/07 13:42:59;;;;;;;0.00;0.00;;;;;;;;;;5007185;28;20026;-70
2022/12/07 13:45:47;;;;;;;0.10;0.10;;;;;;;;;;5001063;28;20109;-70
2022/12/07 13:48:25;;;;;;;0.00;0.00;;;;;;;;;;5003721;28;20758;-70
2022/12/07 13:50:56;;;;;;;0.10;0.10;;;;;;;;;;4988970;28;20038;-71
2022/12/07 13:53:23;;;;;;;0.10;0.10;;;;;;;;;;5006173;28;20141;-71
2022/12/07 13:55:49;;;;;;;0.00;0.00;;;;;;;;;;5009530;28;20025;-70
2022/12/07 13:58:15;;;;;;;0.00;0.00;;;;;;;;;;4990178;28;20041;-70
2022/12/07 14:00:42;;;;;;;0.00;0.00;;;;;;;;;;4991354;28;20037;-70
2022/12/07 14:03:12;;;;;;;0.00;0.00;;;;;;;;;;4999896;28;20054;-71
2022/12/07 14:05:39;;;;;;;0.00;0.00;;;;;;;;;;4992507;28;20026;-71
2022/12/07 14:08:11;;;;;;;0.00;0.00;;;;;;;;;;5008383;28;20091;-71
2022/12/07 14:10:37;;;;;;;0.03;0.03;;;;;;;;;;4990044;28;20034;-70
2022/12/07 14:13:23;;;;;;;0.00;0.00;;;;;;;;;;5005956;28;20033;-70
2022/12/07 14:15:52;;;;;;;0.10;0.10;;;;;;;;;;4994438;28;20032;-70
2022/12/07 14:18:26;;;;;;;0.00;0.00;;;;;;;;;;5011314;28;20061;-69
2022/12/07 14:21:02;;;;;;;0.10;0.10;;;;;;;;;;5008751;28;20030;-70
2022/12/07 14:23:29;;;;;;;0.00;0.00;;;;;;;;;;5009873;28;20101;-69
2022/12/07 14:26:05;;;;;;;0.00;0.00;;;;;;;;;;5009949;28;20076;-70
2022/12/07 14:28:32;;;;;;;0.10;0.10;;;;;;;;;;4993282;28;20030;-70
2022/12/07 14:30:59;;;;;;;0.00;0.00;;;;;;;;;;4994111;28;20029;-71
2022/12/07 14:33:26;;;;;;;0.10;0.10;;;;;;;;;;5010215;28;20573;-70
2022/12/07 14:35:57;;;;;;;0.00;0.00;;;;;;;;;;5007445;28;20033;-71
2022/12/07 14:38:24;;;;;;;0.00;0.00;;;;;;;;;;4987543;28;20036;-71
2022/12/07 14:40:51;;;;;;;0.00;0.00;;;;;;;;;;4993072;28;20084;-72
2022/12/07 14:43:18;;;;;;;0.00;0.00;;;;;;;;;;4986939;28;20030;-71
2022/12/07 14:45:45;;;;;;;0.00;0.00;;;;;;;;;;5009991;28;20033;-72
2022/12/07 14:48:12;;;;;;;0.03;0.03;;;;;;;;;;5008905;28;20499;-70
2022/12/07 14:50:40;;;;;;;0.00;0.00;;;;;;;;;;5003595;28;20136;-71
2022/12/07 14:53:14;;;;;;;0.07;0.07;;;;;;;;;;4992253;28;20092;-70
2022/12/07 14:55:41;;;;;;;0.00;0.00;;;;;;;;;;4994056;28;20137;-70
2022/12/07 14:58:09;;;;;;;0.00;0.00;;;;;;;;;;4990521;28;20522;-70
2022/12/07 15:00:35;;;;;;;0.00;0.00;;;;;;;;;;4992667;28;20058;-71
2022/12/07 15:03:02;;;;;;;0.00;0.00;;;;;;;;;;4989468;28;20030;-71
2022/12/07 15:05:28;;;;;;;0.00;0.00;;;;;;;;;;4998439;28;20025;-69
2022/12/07 15:07:54;;;;;;;0.00;0.00;;;;;;;;;;4992020;28;20026;-70